createdAt,value
2022-07-25T00:00:39.966Z,9.40
2022-07-25T00:02:13.159Z,9.63
2022-07-25T00:03:47.115Z,10.33
2022-07-25T00:05:21.955Z,10.73
2022-07-25T00:06:55.130Z,10.80
2022-07-25T00:08:28.272Z,12.37
2022-07-25T00:10:01.483Z,13.90
2022-07-25T00:11:35.025Z,13.97
2022-07-25T00:13:08.330Z,15.97
2022-07-25T00:14:41.555Z,17.73
2022-07-25T00:16:16.286Z,17.80
2022-07-25T00:17:49.604Z,22.90
2022-07-25T00:19:22.946Z,23.63
2022-07-25T00:20:56.119Z,23.27
2022-07-25T00:22:29.481Z,24.77
2022-07-25T00:24:02.142Z,23.67
2022-07-25T00:25:35.514Z,24.57
2022-07-25T00:27:08.789Z,27.30
2022-07-25T00:28:42.186Z,27.07
2022-07-25T00:30:15.540Z,29.17
2022-07-25T00:31:49.132Z,32.70
2022-07-25T00:33:22.460Z,36.27
2022-07-25T00:34:56.105Z,37.73
2022-07-25T00:36:29.195Z,40.63
2022-07-25T00:38:02.361Z,40.90
2022-07-25T00:39:35.750Z,43.73
2022-07-25T00:41:09.104Z,45.13
2022-07-25T00:42:42.299Z,50.47
2022-07-25T00:44:24.182Z,56.13
2022-07-25T00:45:58.788Z,55.97
2022-07-25T00:47:34.330Z,56.03
2022-07-25T00:49:06.543Z,61.20
2022-07-25T00:50:39.988Z,62.27
2022-07-25T00:52:13.227Z,63.37
2022-07-25T00:53:46.605Z,66.13
2022-07-25T00:55:20.089Z,66.60
2022-07-25T00:56:53.466Z,72.43
2022-07-25T00:58:26.621Z,74.73
2022-07-25T00:59:59.876Z,76.93
2022-07-25T01:01:33.300Z,79.63
2022-07-25T01:03:07.987Z,84.23
2022-07-25T01:04:41.634Z,85.00
2022-07-25T01:06:15.002Z,83.90
2022-07-25T01:07:49.193Z,88.13
2022-07-25T01:09:23.277Z,84.50
2022-07-25T01:10:56.743Z,86.50
2022-07-25T01:12:30.077Z,89.93
2022-07-25T01:14:03.439Z,92.53
2022-07-25T01:15:37.082Z,88.13
2022-07-25T01:17:13.362Z,97.07
2022-07-25T01:18:47.956Z,99.63
2022-07-25T01:20:23.623Z,98.37
2022-07-25T01:21:56.973Z,104.13
2022-07-25T01:23:30.136Z,103.40
2022-07-25T01:25:03.353Z,106.57
2022-07-25T01:26:36.942Z,109.07
2022-07-25T01:28:10.142Z,109.43
2022-07-25T01:29:43.337Z,112.97
2022-07-25T01:31:16.577Z,114.17
2022-07-25T01:32:49.729Z,113.77
2022-07-25T01:34:23.149Z,116.83
2022-07-25T01:35:57.669Z,112.97
2022-07-25T01:37:29.861Z,120.23
2022-07-25T01:39:03.035Z,120.10
2022-07-25T01:40:36.190Z,124.90
2022-07-25T01:42:09.330Z,122.23
2022-07-25T01:43:42.470Z,127.60
2022-07-25T01:45:15.784Z,121.40
2022-07-25T01:46:48.958Z,122.37
2022-07-25T01:48:22.204Z,125.90
2022-07-25T01:49:55.386Z,120.83
2022-07-25T01:51:29.930Z,124.93
2022-07-25T01:53:03.297Z,119.93
2022-07-25T01:54:36.524Z,125.60
2022-07-25T01:56:10.360Z,118.03
2022-07-25T01:57:49.578Z,121.70
2022-07-25T01:59:23.279Z,116.63
2022-07-25T02:00:56.449Z,120.00
2022-07-25T02:02:29.883Z,121.20
2022-07-25T02:04:02.102Z,118.80
2022-07-25T02:05:35.274Z,118.43
2022-07-25T02:07:09.798Z,114.20
2022-07-25T02:08:43.161Z,111.60
2022-07-25T02:10:15.446Z,112.17
2022-07-25T02:11:48.597Z,108.20
2022-07-25T02:13:22.373Z,108.07
2022-07-25T02:14:55.583Z,109.30
2022-07-25T02:16:29.533Z,110.20
2022-07-25T02:18:03.257Z,109.37
2022-07-25T02:19:36.934Z,106.50
2022-07-25T02:21:13.986Z,112.13
2022-07-25T02:22:49.068Z,109.60
2022-07-25T02:24:22.765Z,110.63
2022-07-25T02:25:55.920Z,113.10
2022-07-25T02:27:29.133Z,115.03
2022-07-25T02:29:02.263Z,112.00
2022-07-25T02:30:35.577Z,113.20
2022-07-25T02:32:09.294Z,112.97
2022-07-25T02:33:42.711Z,109.90
2022-07-25T02:35:14.888Z,115.23
2022-07-25T02:36:48.077Z,114.40
2022-07-25T02:38:22.697Z,116.00
2022-07-25T02:39:55.862Z,115.37
2022-07-25T02:41:28.954Z,115.83
2022-07-25T02:43:02.145Z,113.77
2022-07-25T02:44:35.252Z,113.03
2022-07-25T02:46:08.574Z,115.20
2022-07-25T02:47:40.782Z,116.23
2022-07-25T02:49:14.054Z,120.27
2022-07-25T02:50:47.300Z,118.97
2022-07-25T02:52:20.430Z,120.60
2022-07-25T02:53:57.640Z,121.90
2022-07-25T02:55:32.016Z,125.07
2022-07-25T02:57:05.457Z,123.07
2022-07-25T02:58:39.322Z,125.90
2022-07-25T03:00:13.838Z,129.37
2022-07-25T03:01:47.305Z,126.60
2022-07-25T03:03:20.752Z,125.23
2022-07-25T03:04:53.893Z,129.60
2022-07-25T03:06:27.034Z,130.33
2022-07-25T03:08:00.175Z,132.17
2022-07-25T03:09:34.632Z,134.73
2022-07-25T03:11:07.740Z,133.43
2022-07-25T03:12:41.485Z,131.67
2022-07-25T03:14:13.626Z,131.57
2022-07-25T03:15:46.681Z,135.17
2022-07-25T03:17:19.998Z,132.20
2022-07-25T03:18:53.221Z,133.77
2022-07-25T03:20:26.671Z,132.03
2022-07-25T03:21:59.751Z,135.43
2022-07-25T03:23:33.996Z,134.53
2022-07-25T03:25:15.776Z,133.27
2022-07-25T03:26:55.610Z,131.40
2022-07-25T03:28:29.012Z,130.97
2022-07-25T03:30:02.364Z,134.83
2022-07-25T03:31:35.529Z,130.87
2022-07-25T03:33:08.797Z,130.83
2022-07-25T03:34:41.936Z,127.57
2022-07-25T03:36:15.095Z,131.27
2022-07-25T03:37:48.618Z,128.57
2022-07-25T03:39:22.402Z,126.97
2022-07-25T03:40:56.960Z,126.17
2022-07-25T03:42:32.267Z,126.40
2022-07-25T03:44:10.159Z,124.67
2022-07-25T03:45:43.707Z,122.47
2022-07-25T03:47:20.565Z,122.87
2022-07-25T03:48:55.413Z,119.87
2022-07-25T03:50:28.727Z,119.57
2022-07-25T03:52:02.380Z,117.90
2022-07-25T03:53:55.533Z,119.67
2022-07-25T03:55:28.934Z,118.00
2022-07-25T03:57:03.387Z,114.03
2022-07-25T03:58:36.492Z,111.07
2022-07-25T04:00:12.323Z,111.43
2022-07-25T04:01:46.904Z,108.37
2022-07-25T04:03:20.237Z,107.23
2022-07-25T04:04:53.438Z,108.33
2022-07-25T04:06:27.246Z,106.47
2022-07-25T04:08:00.437Z,104.73
2022-07-25T04:09:33.891Z,106.13
2022-07-25T04:11:08.227Z,102.47
2022-07-25T04:12:42.886Z,101.80
2022-07-25T04:14:16.045Z,99.57
2022-07-25T04:15:49.133Z,98.27
2022-07-25T04:17:22.331Z,98.43
2022-07-25T04:18:58.621Z,92.60
2022-07-25T04:20:34.182Z,94.77
2022-07-25T04:22:07.598Z,94.00
2022-07-25T04:23:40.725Z,92.53
2022-07-25T04:25:14.058Z,89.93
2022-07-25T04:26:47.199Z,91.97
2022-07-25T04:28:21.839Z,90.43
2022-07-25T04:29:54.958Z,89.60
2022-07-25T04:31:28.165Z,89.30
2022-07-25T04:33:01.308Z,86.83
2022-07-25T04:34:34.460Z,88.03
2022-07-25T04:36:08.035Z,86.07
2022-07-25T04:37:41.405Z,84.63
2022-07-25T04:39:14.548Z,84.20
2022-07-25T04:40:48.115Z,83.30
2022-07-25T04:42:21.288Z,82.03
2022-07-25T04:43:55.834Z,80.43
2022-07-25T04:45:28.957Z,80.17
2022-07-25T04:47:02.232Z,79.23
2022-07-25T04:48:35.698Z,81.23
2022-07-25T04:50:10.046Z,80.43
2022-07-25T04:51:43.161Z,79.87
2022-07-25T04:53:16.344Z,81.10
2022-07-25T04:54:49.777Z,80.50
2022-07-25T04:56:22.969Z,78.77
2022-07-25T04:57:56.117Z,78.93
2022-07-25T04:59:30.599Z,79.57
2022-07-25T05:01:03.868Z,74.70
2022-07-25T05:02:37.684Z,77.93
2022-07-25T05:04:10.864Z,76.07
2022-07-25T05:05:44.024Z,77.20
2022-07-25T05:07:17.199Z,75.13
2022-07-25T05:08:50.336Z,73.50
2022-07-25T05:10:23.526Z,71.47
2022-07-25T05:11:56.807Z,72.67
2022-07-25T05:13:30.023Z,72.33
2022-07-25T05:15:05.462Z,69.47
2022-07-25T05:16:38.989Z,71.40
2022-07-25T05:18:12.545Z,68.43
2022-07-25T05:19:45.660Z,64.43
2022-07-25T05:21:18.789Z,65.73
2022-07-25T05:22:51.959Z,66.80
2022-07-25T05:24:25.173Z,65.50
2022-07-25T05:25:58.675Z,63.80
2022-07-25T05:27:31.894Z,62.77
2022-07-25T05:29:05.104Z,62.73
2022-07-25T05:30:40.516Z,61.47
2022-07-25T05:32:13.653Z,61.70
2022-07-25T05:33:46.762Z,58.63
2022-07-25T05:35:19.861Z,59.83
2022-07-25T05:36:52.974Z,59.03
2022-07-25T05:38:26.099Z,58.73
2022-07-25T05:39:59.253Z,59.17
2022-07-25T05:41:32.619Z,55.60
2022-07-25T05:43:05.737Z,53.27
2022-07-25T05:44:38.828Z,56.10
2022-07-25T05:46:13.467Z,53.00
2022-07-25T05:47:46.632Z,49.60
2022-07-25T05:49:19.827Z,51.47
2022-07-25T05:50:53.039Z,48.60
2022-07-25T05:52:26.243Z,47.70
2022-07-25T05:53:59.395Z,47.70
2022-07-25T05:55:32.502Z,47.27
2022-07-25T05:57:05.736Z,44.67
2022-07-25T05:58:40.505Z,42.20
2022-07-25T06:00:14.558Z,42.17
2022-07-25T06:01:49.204Z,39.93
2022-07-25T06:03:22.430Z,36.37
2022-07-25T06:04:55.945Z,36.57
2022-07-25T06:06:32.670Z,36.20
2022-07-25T06:08:06.354Z,34.33
2022-07-25T06:09:39.462Z,33.70
2022-07-25T06:11:12.620Z,31.97
2022-07-25T06:12:45.750Z,32.90
2022-07-25T06:14:20.776Z,30.37
2022-07-25T06:15:56.059Z,30.97
2022-07-25T06:17:32.534Z,28.77
2022-07-25T06:19:06.067Z,27.83
2022-07-25T06:20:39.190Z,26.90
2022-07-25T06:22:13.741Z,27.43
2022-07-25T06:23:48.005Z,27.00
2022-07-25T06:25:22.097Z,24.00
2022-07-25T06:26:55.231Z,22.97
2022-07-25T06:28:28.410Z,21.40
2022-07-25T06:30:01.523Z,21.83
2022-07-25T06:31:34.727Z,21.87
2022-07-25T06:33:09.266Z,20.27
2022-07-25T06:34:42.328Z,20.80
2022-07-25T06:36:15.433Z,19.37
2022-07-25T06:37:48.817Z,18.37
2022-07-25T06:39:21.992Z,17.73
2022-07-25T06:40:55.092Z,17.50
2022-07-25T06:42:30.616Z,17.03
2022-07-25T06:44:04.110Z,17.03
2022-07-25T06:45:37.704Z,15.10
2022-07-25T06:47:12.838Z,15.63
2022-07-25T06:48:47.641Z,14.60
2022-07-25T06:50:21.671Z,14.27
2022-07-25T06:51:55.104Z,14.43
2022-07-25T06:53:28.291Z,13.47
2022-07-25T06:55:01.594Z,13.25
2022-07-25T06:56:34.769Z,12.75
2022-07-25T06:58:07.935Z,11.52
2022-07-25T06:59:41.170Z,10.52
2022-07-25T07:01:14.531Z,11.25
2022-07-25T07:02:56.861Z,9.65
2022-07-25T07:04:32.869Z,8.23
2022-07-25T07:06:06.118Z,6.55
2022-07-25T07:07:40.685Z,5.70
2022-07-25T07:09:15.448Z,5.63
2022-07-25T07:10:48.772Z,5.35
2022-07-25T07:12:21.837Z,5.43
2022-07-25T07:13:55.041Z,4.95
2022-07-25T07:15:28.227Z,4.82
2022-07-25T07:17:01.356Z,5.45
2022-07-25T07:18:34.452Z,4.65
2022-07-25T07:20:10.395Z,5.63
2022-07-25T07:21:43.795Z,5.20
2022-07-25T07:23:17.972Z,5.20
2022-07-25T07:24:51.578Z,4.72
2022-07-25T07:26:25.133Z,5.18
2022-07-25T07:27:59.072Z,4.93
2022-07-25T07:29:32.311Z,4.65
2022-07-25T07:31:16.394Z,5.28
2022-07-25T07:32:50.270Z,4.75
2022-07-25T07:34:23.429Z,4.85
2022-07-25T07:35:58.016Z,4.85
2022-07-25T07:37:36.557Z,4.80
2022-07-25T07:39:11.966Z,5.20
2022-07-25T07:40:45.150Z,5.00
2022-07-25T07:42:17.246Z,5.07
2022-07-25T07:43:50.364Z,4.80
2022-07-25T07:45:25.833Z,4.82
2022-07-25T07:47:02.546Z,5.13
2022-07-25T07:48:36.055Z,4.85
2022-07-25T07:50:11.362Z,4.80
2022-07-25T07:51:45.839Z,4.90
2022-07-25T07:53:19.000Z,4.93
2022-07-25T07:55:09.630Z,4.90
2022-07-25T07:56:42.027Z,5.07
2022-07-25T07:58:16.779Z,4.88
2022-07-25T07:59:50.036Z,5.07
2022-07-25T08:01:24.931Z,5.22
2022-07-25T08:02:59.879Z,5.25
2022-07-25T08:04:33.051Z,5.10
2022-07-25T08:06:06.880Z,4.75
2022-07-25T08:07:41.404Z,5.00
2022-07-25T08:09:14.602Z,5.50
2022-07-25T08:10:48.978Z,5.03
2022-07-25T08:12:22.081Z,5.13
2022-07-25T08:13:55.694Z,11.38
2022-07-25T08:15:28.995Z,5.25
2022-07-25T08:17:02.093Z,5.10
2022-07-25T08:18:35.845Z,5.50
2022-07-25T08:20:35.634Z,5.40
2022-07-25T08:22:02.936Z,4.90
2022-07-25T08:23:39.047Z,5.25
2022-07-25T08:25:15.189Z,5.97
2022-07-25T08:26:53.229Z,6.10
2022-07-25T08:28:26.368Z,5.40
2022-07-25T08:30:01.262Z,5.47
2022-07-25T08:31:34.456Z,5.57
2022-07-25T08:33:10.550Z,5.57
2022-07-25T08:34:43.652Z,5.25
2022-07-25T08:36:17.177Z,6.05
2022-07-25T08:37:51.193Z,5.78
2022-07-25T08:39:25.685Z,5.50
2022-07-25T08:40:59.819Z,5.05
2022-07-25T08:42:35.065Z,5.53
2022-07-25T08:44:09.596Z,5.80
2022-07-25T08:45:46.941Z,6.10
2022-07-25T08:47:20.594Z,6.03
2022-07-25T08:48:54.015Z,6.35
2022-07-25T08:50:29.898Z,6.28
2022-07-25T08:52:04.825Z,5.68
2022-07-25T08:53:38.498Z,5.97
2022-07-25T08:55:16.847Z,6.07
2022-07-25T08:56:49.965Z,5.95
2022-07-25T08:58:23.106Z,5.80
2022-07-25T08:59:58.945Z,6.03
2022-07-25T09:01:34.933Z,5.50
2022-07-25T09:03:08.875Z,5.93
2022-07-25T09:04:43.400Z,5.75
2022-07-25T09:06:18.786Z,5.57
2022-07-25T09:07:53.684Z,5.70
2022-07-25T09:09:37.021Z,5.93
2022-07-25T09:11:11.703Z,5.50
2022-07-25T09:12:53.358Z,6.22
2022-07-25T09:14:26.803Z,5.78
2022-07-25T09:16:00.833Z,5.85
2022-07-25T09:17:34.038Z,6.10
2022-07-25T09:19:12.732Z,5.70
2022-07-25T09:20:48.297Z,6.18
2022-07-25T09:22:21.795Z,6.18
2022-07-25T09:23:54.958Z,6.15
2022-07-25T09:25:29.964Z,6.25
2022-07-25T09:27:12.645Z,5.75
2022-07-25T09:28:47.815Z,6.10
2022-07-25T09:30:21.451Z,6.10
2022-07-25T09:31:56.712Z,5.80
2022-07-25T09:33:30.374Z,5.93
2022-07-25T09:35:03.570Z,6.18
2022-07-25T09:36:39.684Z,5.47
2022-07-25T09:38:14.196Z,5.90
2022-07-25T09:39:49.681Z,5.70
2022-07-25T09:41:23.499Z,5.70
2022-07-25T09:42:58.075Z,6.03
2022-07-25T09:44:31.306Z,5.70
2022-07-25T09:46:04.883Z,5.75
2022-07-25T09:47:39.394Z,5.95
2022-07-25T09:49:14.527Z,6.25
2022-07-25T09:50:48.074Z,5.68
2022-07-25T09:52:20.275Z,5.97
2022-07-25T09:53:53.794Z,6.15
2022-07-25T09:55:27.057Z,5.53
2022-07-25T09:57:00.287Z,6.00
2022-07-25T09:58:34.922Z,6.25
2022-07-25T10:00:09.934Z,6.68
2022-07-25T10:01:53.297Z,5.80
2022-07-25T10:03:35.729Z,5.65
2022-07-25T10:05:15.810Z,5.72
2022-07-25T10:06:55.994Z,5.75
2022-07-25T10:08:30.325Z,5.78
2022-07-25T10:10:03.605Z,5.45
2022-07-25T10:11:36.760Z,5.68
2022-07-25T10:13:11.863Z,5.75
2022-07-25T10:15:09.087Z,5.72
2022-07-25T10:16:48.613Z,6.00
2022-07-25T10:18:24.632Z,5.60
2022-07-25T10:19:59.064Z,5.82
2022-07-25T10:21:32.349Z,6.00
2022-07-25T10:23:18.863Z,5.78
2022-07-25T10:24:52.009Z,5.57
2022-07-25T10:26:25.630Z,5.82
2022-07-25T10:28:09.922Z,6.25
2022-07-25T10:29:43.687Z,5.72
2022-07-25T10:31:22.008Z,5.93
2022-07-25T10:32:59.840Z,5.60
2022-07-25T10:34:33.199Z,5.72
2022-07-25T10:36:11.090Z,6.05
2022-07-25T10:37:49.099Z,5.50
2022-07-25T10:39:23.890Z,5.53
2022-07-25T10:41:01.876Z,5.78
2022-07-25T10:42:35.767Z,5.68
2022-07-25T10:44:13.674Z,6.18
2022-07-25T10:45:52.181Z,5.85
2022-07-25T10:47:28.603Z,5.80
2022-07-25T10:49:03.881Z,5.85
2022-07-25T10:50:56.600Z,5.70
2022-07-25T10:52:31.635Z,5.75
2022-07-25T10:54:14.620Z,5.82
2022-07-25T10:56:05.615Z,6.75
2022-07-25T10:57:55.033Z,5.82
2022-07-25T10:59:34.929Z,5.18
2022-07-25T11:01:07.506Z,5.38
2022-07-25T11:02:43.048Z,5.68
2022-07-25T11:04:17.017Z,5.28
2022-07-25T11:05:54.556Z,5.45
2022-07-25T11:07:28.853Z,5.40
2022-07-25T11:09:03.286Z,5.18
2022-07-25T11:10:37.190Z,5.60
2022-07-25T11:12:10.855Z,5.30
2022-07-25T11:13:45.028Z,5.95
2022-07-25T11:15:22.518Z,5.70
2022-07-25T11:16:56.997Z,5.22
2022-07-25T11:18:36.503Z,5.63
2022-07-25T11:20:11.766Z,5.65
2022-07-25T11:21:49.185Z,5.68
2022-07-25T11:23:23.381Z,6.22
2022-07-25T11:24:57.805Z,6.13
2022-07-25T11:26:31.106Z,5.63
2022-07-25T11:28:04.347Z,5.97
2022-07-25T11:29:38.685Z,6.07
2022-07-25T11:31:13.297Z,5.90
2022-07-25T11:32:49.482Z,5.93
2022-07-25T11:34:28.417Z,5.80
2022-07-25T11:36:02.142Z,5.82
2022-07-25T11:37:38.568Z,5.78
2022-07-25T11:39:16.804Z,5.38
2022-07-25T11:40:51.971Z,6.30
2022-07-25T11:42:27.372Z,5.60
2022-07-25T11:44:00.750Z,5.90
2022-07-25T11:45:36.515Z,5.95
2022-07-25T11:47:11.355Z,5.90
2022-07-25T11:48:44.596Z,5.55
2022-07-25T11:50:19.244Z,5.70
2022-07-25T11:51:52.503Z,5.35
2022-07-25T11:53:26.461Z,5.28
2022-07-25T11:55:01.601Z,5.40
2022-07-25T11:56:43.048Z,5.80
2022-07-25T11:58:19.032Z,5.53
2022-07-25T11:59:52.312Z,5.18
2022-07-25T12:01:25.916Z,5.40
2022-07-25T12:03:08.674Z,5.32
2022-07-25T12:04:42.078Z,5.35
2022-07-25T12:06:16.561Z,5.40
2022-07-25T12:07:51.745Z,5.85
2022-07-25T12:09:25.068Z,5.53
2022-07-25T12:10:58.181Z,5.57
2022-07-25T12:12:41.635Z,5.90
2022-07-25T12:14:15.012Z,5.70
2022-07-25T12:15:48.186Z,5.63
2022-07-25T12:17:21.434Z,5.60
2022-07-25T12:18:54.567Z,5.68
2022-07-25T12:20:29.621Z,5.65
2022-07-25T12:22:04.108Z,5.28
2022-07-25T12:23:38.937Z,5.60
2022-07-25T12:25:12.680Z,5.78
2022-07-25T12:26:45.865Z,5.22
2022-07-25T12:28:19.004Z,5.60
2022-07-25T12:29:52.162Z,5.38
2022-07-25T12:31:28.612Z,5.70
2022-07-25T12:33:02.162Z,5.40
2022-07-25T12:34:35.324Z,5.18
2022-07-25T12:36:12.580Z,5.15
2022-07-25T12:37:47.402Z,5.07
2022-07-25T12:39:20.487Z,5.15
2022-07-25T12:40:54.010Z,5.18
2022-07-25T12:42:28.690Z,5.25
2022-07-25T12:44:02.893Z,5.60
2022-07-25T12:45:36.559Z,5.05
2022-07-25T12:47:09.754Z,5.20
2022-07-25T12:48:42.931Z,5.45
2022-07-25T12:50:16.582Z,4.70
2022-07-25T12:51:52.449Z,5.15
2022-07-25T12:53:29.187Z,5.80
2022-07-25T12:55:02.398Z,5.05
2022-07-25T12:56:36.154Z,5.30
2022-07-25T12:58:10.053Z,5.03
2022-07-25T12:59:43.744Z,5.68
2022-07-25T13:01:17.017Z,5.50
2022-07-25T13:02:53.062Z,5.70
2022-07-25T13:04:27.202Z,5.57
2022-07-25T13:06:00.714Z,5.13
2022-07-25T13:07:34.059Z,5.30
2022-07-25T13:09:09.103Z,5.25
2022-07-25T13:10:42.614Z,5.57
2022-07-25T13:12:16.657Z,5.32
2022-07-25T13:13:49.943Z,5.40
2022-07-25T13:15:23.460Z,5.45
2022-07-25T13:16:57.984Z,5.10
2022-07-25T13:18:31.697Z,5.70
2022-07-25T13:20:06.437Z,6.00
2022-07-25T13:21:40.124Z,5.63
2022-07-25T13:23:17.485Z,5.40
2022-07-25T13:24:55.116Z,5.30
2022-07-25T13:26:28.361Z,5.32
2022-07-25T13:28:03.304Z,5.63
2022-07-25T13:29:41.545Z,5.53
2022-07-25T13:31:18.625Z,4.78
2022-07-25T13:32:52.934Z,5.60
2022-07-25T13:34:26.061Z,5.40
2022-07-25T13:35:59.213Z,5.38
2022-07-25T13:37:34.098Z,6.00
2022-07-25T13:39:08.367Z,5.80
2022-07-25T13:40:43.333Z,5.35
2022-07-25T13:42:16.462Z,5.45
2022-07-25T13:43:49.634Z,6.05
2022-07-25T13:45:22.941Z,5.43
2022-07-25T13:46:57.434Z,5.22
2022-07-25T13:48:31.739Z,5.43
2022-07-25T13:50:05.571Z,5.32
2022-07-25T13:51:38.789Z,5.85
2022-07-25T13:53:11.957Z,5.30
2022-07-25T13:54:45.058Z,5.75
2022-07-25T13:56:19.666Z,5.75
2022-07-25T13:57:52.968Z,5.60
2022-07-25T13:59:26.084Z,5.30
2022-07-25T14:00:59.548Z,5.20
2022-07-25T14:02:32.888Z,5.30
2022-07-25T14:04:06.297Z,5.07
2022-07-25T14:05:40.749Z,4.90
2022-07-25T14:07:14.641Z,5.00
2022-07-25T14:08:48.031Z,5.18
2022-07-25T14:10:21.155Z,4.85
2022-07-25T14:11:55.732Z,5.35
2022-07-25T14:13:28.814Z,5.22
2022-07-25T14:15:02.163Z,6.00
2022-07-25T14:16:35.409Z,5.30
2022-07-25T14:18:09.599Z,5.13
2022-07-25T14:19:42.724Z,5.28
2022-07-25T14:21:16.053Z,5.25
2022-07-25T14:22:49.176Z,5.20
2022-07-25T14:24:22.303Z,5.50
2022-07-25T14:25:55.402Z,5.68
2022-07-25T14:27:29.981Z,5.20
2022-07-25T14:29:04.207Z,5.28
2022-07-25T14:30:37.882Z,5.80
2022-07-25T14:32:11.179Z,4.90
2022-07-25T14:33:44.410Z,5.10
2022-07-25T14:35:17.514Z,4.88
2022-07-25T14:36:50.626Z,4.70
2022-07-25T14:38:23.780Z,5.20
2022-07-25T14:39:58.015Z,4.88
2022-07-25T14:41:31.257Z,4.85
2022-07-25T14:43:05.795Z,4.85
2022-07-25T14:44:39.492Z,4.78
2022-07-25T14:46:13.128Z,5.05
2022-07-25T14:47:46.305Z,5.35
2022-07-25T14:49:19.606Z,5.40
2022-07-25T14:50:52.852Z,5.35
2022-07-25T14:52:26.034Z,5.03
2022-07-25T14:53:59.127Z,5.05
2022-07-25T14:55:32.353Z,5.15
2022-07-25T14:57:05.834Z,5.50
2022-07-25T14:58:40.729Z,5.03
2022-07-25T15:00:14.876Z,5.00
2022-07-25T15:01:48.160Z,5.00
2022-07-25T15:03:21.316Z,5.53
2022-07-25T15:04:54.611Z,5.45
2022-07-25T15:06:29.294Z,5.40
2022-07-25T15:08:02.790Z,5.25
2022-07-25T15:09:35.970Z,5.30
2022-07-25T15:11:09.283Z,5.85
2022-07-25T15:12:42.437Z,5.68
2022-07-25T15:14:16.915Z,5.40
2022-07-25T15:15:50.142Z,4.97
2022-07-25T15:17:23.362Z,5.60
2022-07-25T15:19:15.874Z,5.25
2022-07-25T15:20:51.820Z,5.15
2022-07-25T15:22:25.226Z,5.65
2022-07-25T15:24:00.055Z,5.95
2022-07-25T15:26:00.756Z,5.25
2022-07-25T15:27:26.462Z,5.20
2022-07-25T15:29:00.101Z,5.88
2022-07-25T15:30:34.593Z,5.63
2022-07-25T15:32:09.376Z,5.50
2022-07-25T15:33:42.523Z,5.38
2022-07-25T15:35:15.904Z,5.32
2022-07-25T15:36:49.061Z,5.40
2022-07-25T15:38:22.225Z,5.70
2022-07-25T15:39:55.446Z,5.00
2022-07-25T15:41:28.558Z,5.78
2022-07-25T15:43:01.724Z,5.72
2022-07-25T15:44:34.830Z,5.53
2022-07-25T15:46:12.512Z,5.82
2022-07-25T15:47:50.694Z,5.40
2022-07-25T15:49:24.390Z,5.30
2022-07-25T15:50:59.823Z,5.38
2022-07-25T15:52:32.930Z,5.20
2022-07-25T15:54:06.934Z,5.80
2022-07-25T15:55:41.480Z,5.60
2022-07-25T15:57:14.610Z,5.10
2022-07-25T15:58:50.113Z,5.50
2022-07-25T16:00:28.992Z,5.68
2022-07-25T16:02:08.403Z,5.32
2022-07-25T16:03:41.632Z,5.50
2022-07-25T16:05:15.724Z,5.32
2022-07-25T16:06:49.781Z,4.95
2022-07-25T16:08:22.984Z,5.70
2022-07-25T16:09:56.675Z,5.38
2022-07-25T16:11:30.121Z,5.65
2022-07-25T16:13:03.447Z,5.72
2022-07-25T16:14:36.657Z,5.30
2022-07-25T16:16:10.556Z,5.70
2022-07-25T16:17:45.116Z,5.60
2022-07-25T16:19:18.293Z,5.10
2022-07-25T16:20:51.449Z,5.30
2022-07-25T16:22:25.161Z,5.60
2022-07-25T16:23:58.446Z,5.50
2022-07-25T16:25:31.788Z,5.47
2022-07-25T16:27:05.256Z,5.93
2022-07-25T16:28:39.780Z,5.80
2022-07-25T16:30:14.211Z,5.35
2022-07-25T16:31:47.428Z,5.13
2022-07-25T16:33:21.979Z,5.70
2022-07-25T16:34:55.128Z,5.47
2022-07-25T16:36:29.216Z,5.00
2022-07-25T16:38:02.496Z,5.40
2022-07-25T16:39:35.634Z,5.28
2022-07-25T16:41:08.865Z,5.15
2022-07-25T16:42:42.501Z,5.78
2022-07-25T16:44:15.683Z,5.30
2022-07-25T16:45:48.800Z,4.65
2022-07-25T16:47:21.975Z,5.10
2022-07-25T16:48:56.564Z,5.05
2022-07-25T16:50:29.761Z,5.25
2022-07-25T16:52:03.144Z,4.90
2022-07-25T16:53:37.235Z,5.35
2022-07-25T16:55:10.704Z,5.50
2022-07-25T16:56:44.177Z,4.93
2022-07-25T16:58:17.505Z,5.18
2022-07-25T16:59:50.623Z,4.63
2022-07-25T17:01:24.842Z,5.18
2022-07-25T17:02:58.465Z,5.10
2022-07-25T17:04:33.587Z,5.07
2022-07-25T17:06:07.409Z,4.50
2022-07-25T17:07:40.989Z,4.95
2022-07-25T17:09:14.104Z,5.00
2022-07-25T17:10:47.538Z,5.03
2022-07-25T17:12:20.800Z,5.03
2022-07-25T17:13:53.977Z,4.82
2022-07-25T17:15:27.104Z,5.18
2022-07-25T17:17:00.344Z,4.97
2022-07-25T17:18:33.526Z,5.15
2022-07-25T17:20:09.650Z,5.03
2022-07-25T17:21:43.017Z,5.57
2022-07-25T17:23:16.530Z,5.38
2022-07-25T17:24:49.622Z,5.60
2022-07-25T17:26:23.244Z,4.93
2022-07-25T17:27:56.387Z,5.53
2022-07-25T17:29:29.591Z,5.10
2022-07-25T17:31:02.894Z,5.05
2022-07-25T17:32:36.182Z,5.32
2022-07-25T17:34:09.354Z,4.97
2022-07-25T17:35:44.065Z,5.40
2022-07-25T17:37:17.224Z,5.40
2022-07-25T17:38:50.419Z,4.80
2022-07-25T17:40:23.587Z,5.22
2022-07-25T17:41:56.751Z,5.57
2022-07-25T17:43:30.089Z,5.10
2022-07-25T17:45:05.821Z,5.22
2022-07-25T17:46:39.072Z,5.10
2022-07-25T17:48:12.314Z,5.25
2022-07-25T17:49:45.775Z,5.20
2022-07-25T17:51:20.388Z,4.90
2022-07-25T17:52:54.189Z,5.18
2022-07-25T17:54:27.315Z,5.63
2022-07-25T17:56:00.491Z,5.35
2022-07-25T17:57:34.177Z,5.25
2022-07-25T17:59:08.571Z,4.68
2022-07-25T18:00:41.713Z,5.38
2022-07-25T18:02:15.062Z,5.22
2022-07-25T18:03:50.212Z,5.50
2022-07-25T18:05:23.468Z,5.45
2022-07-25T18:06:57.998Z,5.32
2022-07-25T18:08:35.110Z,4.82
2022-07-25T18:10:09.258Z,5.13
2022-07-25T18:11:42.555Z,5.25
2022-07-25T18:13:17.560Z,5.07
2022-07-25T18:14:50.722Z,5.55
2022-07-25T18:16:24.435Z,5.35
2022-07-25T18:17:57.570Z,5.40
2022-07-25T18:19:30.764Z,6.05
2022-07-25T18:21:03.946Z,5.05
2022-07-25T18:22:41.193Z,4.95
2022-07-25T18:24:14.429Z,5.40
2022-07-25T18:25:47.821Z,5.78
2022-07-25T18:27:20.980Z,5.80
2022-07-25T18:28:54.136Z,6.47
2022-07-25T18:30:29.357Z,7.80
2022-07-25T18:32:02.573Z,8.30
2022-07-25T18:33:35.866Z,7.67
2022-07-25T18:35:10.937Z,7.43
2022-07-25T18:36:44.261Z,7.87
2022-07-25T18:38:18.859Z,7.67
2022-07-25T18:39:51.982Z,7.53
2022-07-25T18:41:30.062Z,7.80
2022-07-25T18:43:06.629Z,7.63
2022-07-25T18:44:42.548Z,7.50
2022-07-25T18:46:16.449Z,7.70
2022-07-25T18:47:49.663Z,6.80
2022-07-25T18:49:22.989Z,7.10
2022-07-25T18:50:56.286Z,7.53
2022-07-25T18:52:34.687Z,7.33
2022-07-25T18:54:09.635Z,7.57
2022-07-25T18:55:43.277Z,7.57
2022-07-25T18:57:16.740Z,7.27
2022-07-25T18:58:49.949Z,7.23
2022-07-25T19:00:23.282Z,6.77
2022-07-25T19:01:56.414Z,7.50
2022-07-25T19:03:32.718Z,7.60
2022-07-25T19:05:06.427Z,7.57
2022-07-25T19:06:39.690Z,8.40
2022-07-25T19:08:13.042Z,7.10
2022-07-25T19:09:47.512Z,7.07
2022-07-25T19:11:20.633Z,7.13
2022-07-25T19:12:53.811Z,7.10
2022-07-25T19:14:27.873Z,7.20
2022-07-25T19:16:01.942Z,7.90
2022-07-25T19:17:35.870Z,7.17
2022-07-25T19:19:09.694Z,7.77
2022-07-25T19:20:43.781Z,7.37
2022-07-25T19:22:16.877Z,8.37
2022-07-25T19:23:51.117Z,8.20
2022-07-25T19:25:25.977Z,8.10
2022-07-25T19:26:59.120Z,8.40
2022-07-25T19:28:32.397Z,8.90
2022-07-25T19:30:07.000Z,8.60
2022-07-25T19:31:40.244Z,11.13
2022-07-25T19:33:13.357Z,11.37
2022-07-25T19:34:46.542Z,11.30
2022-07-25T19:36:19.673Z,19.63
2022-07-25T19:37:52.810Z,26.50
2022-07-25T19:39:25.955Z,28.70
2022-07-25T19:41:00.821Z,18.80
2022-07-25T19:42:33.998Z,13.87
2022-07-25T19:44:07.930Z,12.30
2022-07-25T19:45:41.354Z,10.23
2022-07-25T19:47:14.584Z,9.10
2022-07-25T19:48:47.875Z,8.87
2022-07-25T19:50:21.698Z,8.33
2022-07-25T19:51:54.813Z,8.20
2022-07-25T19:53:28.713Z,8.33
2022-07-25T19:55:02.208Z,7.70
2022-07-25T19:56:37.004Z,7.83
2022-07-25T19:58:10.367Z,8.03
2022-07-25T19:59:43.457Z,7.77
2022-07-25T20:01:17.298Z,7.93
2022-07-25T20:02:50.985Z,8.60
2022-07-25T20:04:24.335Z,8.43
2022-07-25T20:05:57.462Z,7.80
2022-07-25T20:07:30.859Z,7.83
2022-07-25T20:09:05.347Z,8.40
2022-07-25T20:10:38.805Z,8.53
2022-07-25T20:12:13.248Z,8.10
2022-07-25T20:13:46.638Z,7.93
2022-07-25T20:15:19.759Z,8.47
2022-07-25T20:16:52.936Z,8.30
2022-07-25T20:18:26.291Z,8.17
2022-07-25T20:20:00.120Z,8.40
2022-07-25T20:21:34.303Z,8.27
2022-07-25T20:23:07.429Z,9.00
2022-07-25T20:24:40.644Z,9.00
2022-07-25T20:26:13.906Z,8.37
2022-07-25T20:27:49.592Z,8.43
2022-07-25T20:29:23.882Z,8.50
2022-07-25T20:30:57.622Z,8.77
2022-07-25T20:32:31.092Z,8.40
2022-07-25T20:34:04.468Z,8.80
2022-07-25T20:35:37.752Z,8.37